Time;durP1;ratioP1;P1;durP2;ratioP2;P2;SDS_P1;SDS_P2;PMS_P1;PMS_P2;Temp;Humidity;BMP_temperature;BMP_pressure;BME280_temperature;BME280_humidity;BME280_pressure;Samples;Min_cycle;Max_cycle;Signal;HPM_P1;HPM_P2
2022/10/06 00:01:37;;;;;;;;;;;;;;;20.62;51.89;96553.31;10542179;28;1934;-46
2022/10/06 00:06:38;;;;;;;;;;;;;;;20.61;51.64;96554.34;10528507;28;1969;-47
2022/10/06 00:11:38;;;;;;;;;;;;;;;20.61;52.03;96556.97;10546100;28;1977;-45
2022/10/06 00:16:39;;;;;;;;;;;;;;;20.59;51.48;96561.72;10538358;28;1957;-46
2022/10/06 00:21:39;;;;;;;;;;;;;;;20.58;52.04;96559.34;10566878;27;2013;-45
2022/10/06 00:26:39;;;;;;;;;;;;;;;20.58;51.72;96567.22;10546843;28;2066;-47
2022/10/06 00:31:40;;;;;;;;;;;;;;;20.58;51.49;96568.03;10546321;28;2044;-45
2022/10/06 00:36:40;;;;;;;;;;;;;;;20.57;51.79;96569.06;10546779;28;1935;-47
2022/10/06 00:41:41;;;;;;;;;;;;;;;20.57;51.99;96566.44;10542664;28;1878;-45
2022/10/06 00:46:47;;;;;;;;;;;;;;;20.58;51.31;96570.66;10564235;27;1907;-46
2022/10/06 00:51:52;;;;;;;;;;;;;;;20.57;51.79;96576.16;10512250;28;2094;-45
2022/10/06 00:56:52;;;;;;;;;;;;;;;20.56;51.48;96578.03;10499805;28;1955;-47
2022/10/06 01:01:55;;;;;;;;;;;;;;;20.52;51.72;96574.31;10525985;28;1896;-47
2022/10/06 01:06:56;;;;;;;;;;;;;;;20.52;51.51;96582.22;10520810;28;1908;-48
2022/10/06 01:11:57;;;;;;;;;;;;;;;20.53;51.39;96573.25;10537205;28;2073;-48
2022/10/06 01:17:08;;;;;;;;;;;;;;;20.52;51.39;96579.59;10505527;28;1928;-50
2022/10/06 01:22:09;;;;;;;;;;;;;;;20.52;51.36;96574.31;10526596;28;1981;-47
2022/10/06 01:27:10;;;;;;;;;;;;;;;20.52;51.16;96576.94;10524578;28;1972;-46
2022/10/06 01:32:11;;;;;;;;;;;;;;;20.49;51.08;96579.28;10514451;28;2000;-45
2022/10/06 01:37:12;;;;;;;;;;;;;;;20.49;51.08;96580.06;10527286;28;2071;-46
2022/10/06 01:42:12;;;;;;;;;;;;;;;20.49;50.98;96592.44;10505733;28;1920;-49
2022/10/06 01:47:13;;;;;;;;;;;;;;;20.48;51.34;96590.88;10510002;28;2081;-46
2022/10/06 01:52:13;;;;;;;;;;;;;;;20.48;51.10;96593.50;10516789;28;1997;-44
2022/10/06 01:57:14;;;;;;;;;;;;;;;20.48;50.98;96599.56;10538097;28;1950;-49
2022/10/06 02:02:14;;;;;;;;;;;;;;;20.47;50.89;96597.97;10525357;28;1989;-46
2022/10/06 02:07:15;;;;;;;;;;;;;;;20.47;51.04;96602.44;10521599;28;1934;-46
2022/10/06 02:12:15;;;;;;;;;;;;;;;20.48;50.89;96604.03;10518783;28;2043;-47
2022/10/06 02:17:16;;;;;;;;;;;;;;;20.48;50.83;96617.22;10542564;28;1891;-47
2022/10/06 02:22:16;;;;;;;;;;;;;;;20.45;50.96;96615.88;10511004;28;2051;-48
2022/10/06 02:27:16;;;;;;;;;;;;;;;20.43;50.85;96620.59;10543807;27;1965;-47
2022/10/06 02:32:17;;;;;;;;;;;;;;;20.42;51.02;96624.28;10513545;28;2039;-46
2022/10/06 02:37:18;;;;;;;;;;;;;;;20.43;50.66;96620.59;10515846;28;2058;-45
2022/10/06 02:42:19;;;;;;;;;;;;;;;20.42;50.80;96632.19;10539277;28;1915;-46
2022/10/06 02:47:21;;;;;;;;;;;;;;;20.43;50.49;96630.31;10508426;28;2014;-48
2022/10/06 02:52:22;;;;;;;;;;;;;;;20.40;50.75;96636.09;10526192;28;2016;-49
2022/10/06 02:57:23;;;;;;;;;;;;;;;20.46;50.41;96637.72;10515399;28;1894;-46
2022/10/06 03:02:24;;;;;;;;;;;;;;;20.41;50.48;96641.13;10506092;28;1970;-48
2022/10/06 03:07:24;;;;;;;;;;;;;;;20.41;50.79;96645.59;10521548;28;2089;-47
2022/10/06 03:12:26;;;;;;;;;;;;;;;20.40;50.50;96644.00;10515540;28;2002;-47
2022/10/06 03:17:27;;;;;;;;;;;;;;;20.39;50.60;96652.94;10530595;28;1906;-47
2022/10/06 03:22:27;;;;;;;;;;;;;;;20.39;50.63;96659.00;10522316;28;2137;-50
2022/10/06 03:27:28;;;;;;;;;;;;;;;20.35;50.45;96668.44;10519508;28;2041;-46
2022/10/06 03:32:28;;;;;;;;;;;;;;;20.40;50.45;96670.34;10511119;28;2175;-48
2022/10/06 03:37:28;;;;;;;;;;;;;;;20.42;50.18;96665.63;10512524;28;1894;-47
2022/10/06 03:42:31;;;;;;;;;;;;;;;20.52;49.78;96676.25;10515057;28;1918;-46
2022/10/06 03:47:31;;;;;;;;;;;;;;;20.61;49.60;96683.41;10532426;28;2073;-46
2022/10/06 03:52:32;;;;;;;;;;;;;;;20.66;49.45;96685.31;10474105;28;1264915;-45
2022/10/06 03:57:32;;;;;;;;;;;;;;;20.72;49.35;96679.84;10506431;28;1901;-48
2022/10/06 04:02:33;;;;;;;;;;;;;;;20.71;48.37;96690.63;10506663;28;2026;-48
2022/10/06 04:07:33;;;;;;;;;;;;;;;20.70;48.02;96695.09;10521207;28;2098;-47
2022/10/06 04:12:34;;;;;;;;;;;;;;;20.74;47.84;96700.66;10514310;28;1965;-46
2022/10/06 04:17:35;;;;;;;;;;;;;;;20.77;47.75;96708.84;10519640;28;1967;-48
2022/10/06 04:22:35;;;;;;;;;;;;;;;20.80;47.49;96700.44;10530311;28;1949;-48
2022/10/06 04:27:36;;;;;;;;;;;;;;;20.84;47.90;96704.16;10523845;28;2098;-46
2022/10/06 04:32:37;;;;;;;;;;;;;;;20.89;47.66;96706.84;10518765;28;1993;-47
2022/10/06 04:37:38;;;;;;;;;;;;;;;20.90;47.50;96718.97;10509733;28;1995;-47
2022/10/06 04:42:39;;;;;;;;;;;;;;;20.95;47.71;96723.50;10503587;28;1983;-46
2022/10/06 04:47:39;;;;;;;;;;;;;;;20.98;47.52;96725.59;10525286;28;2224;-47
2022/10/06 04:52:40;;;;;;;;;;;;;;;21.00;47.51;96724.31;10525081;28;1906;-49
2022/10/06 04:57:41;;;;;;;;;;;;;;;21.02;47.50;96722.25;10505446;28;2126;-47
2022/10/06 05:02:41;;;;;;;;;;;;;;;21.05;47.59;96734.94;10508562;28;1824;-49
2022/10/06 05:07:45;;;;;;;;;;;;;;;21.08;47.30;96736.28;10520219;28;2183;-48
2022/10/06 05:12:45;;;;;;;;;;;;;;;21.13;47.40;96738.13;10535214;28;1918;-46
2022/10/06 05:17:45;;;;;;;;;;;;;;;21.13;47.35;96743.41;10489360;28;1907;-46
2022/10/06 05:22:46;;;;;;;;;;;;;;;21.15;47.58;96741.31;10525981;28;1984;-45
2022/10/06 05:27:46;;;;;;;;;;;;;;;21.17;47.28;96749.75;10540042;28;2116;-48
2022/10/06 05:32:49;;;;;;;;;;;;;;;21.18;47.36;96757.44;10525446;28;2005;-46
2022/10/06 05:37:49;;;;;;;;;;;;;;;21.22;47.26;96774.34;10542431;28;2043;-47
2022/10/06 05:42:51;;;;;;;;;;;;;;;21.23;47.14;96775.13;10534645;28;1992;-46
2022/10/06 05:47:53;;;;;;;;;;;;;;;21.24;47.47;96771.44;10545514;27;2190;-47
2022/10/06 05:52:55;;;;;;;;;;;;;;;21.24;47.03;96782.78;10517134;28;2057;-48
2022/10/06 05:57:56;;;;;;;;;;;;;;;21.27;47.25;96795.47;10517898;28;2418;-46
2022/10/06 06:02:56;;;;;;;;;;;;;;;21.27;47.17;96802.59;10544329;27;1890;-44
2022/10/06 06:07:57;;;;;;;;;;;;;;;21.27;46.41;96811.28;10514793;28;1927;-48
2022/10/06 06:12:57;;;;;;;;;;;;;;;21.28;46.24;96820.00;10522231;28;2140;-46
2022/10/06 06:18:00;;;;;;;;;;;;;;;21.31;46.73;96822.16;10511900;28;1959;-49
2022/10/06 06:23:00;;;;;;;;;;;;;;;21.37;47.46;96831.69;10503758;28;1863;-45
2022/10/06 06:28:01;;;;;;;;;;;;;;;21.46;47.18;96835.44;10508088;28;1947;-46
2022/10/06 06:33:02;;;;;;;;;;;;;;;21.47;47.29;96844.94;10535223;27;1977;-45
2022/10/06 06:38:02;;;;;;;;;;;;;;;21.50;47.56;96847.06;10512340;28;2045;-45
2022/10/06 06:43:03;;;;;;;;;;;;;;;21.50;47.49;96855.78;10501153;28;2141;-48
2022/10/06 06:48:04;;;;;;;;;;;;;;;21.49;47.79;96869.22;10505039;28;2089;-46
2022/10/06 06:53:05;;;;;;;;;;;;;;;21.47;47.66;96869.50;10523931;28;2003;-46
2022/10/06 06:58:05;;;;;;;;;;;;;;;21.46;48.11;96878.44;10494807;28;2087;-46
2022/10/06 07:03:06;;;;;;;;;;;;;;;21.45;47.80;96883.97;10488517;28;2012;-47
2022/10/06 07:08:09;;;;;;;;;;;;;;;21.34;48.08;96883.09;10513015;28;2060;-46
2022/10/06 07:13:12;;;;;;;;;;;;;;;21.36;48.08;96886.28;10497163;28;2097;-45
2022/10/06 07:28:51;;;;;;;;;;;;;;;21.29;48.08;96917.31;10523722;28;2042;-45
2022/10/06 07:33:51;;;;;;;;;;;;;;;21.31;48.27;96920.50;10528411;28;2078;-45
2022/10/06 07:38:52;;;;;;;;;;;;;;;21.28;48.55;96918.38;10506148;28;1949;-49
2022/10/06 07:43:55;;;;;;;;;;;;;;;21.25;48.19;96916.22;10521275;28;1994;-47
2022/10/06 07:48:55;;;;;;;;;;;;;;;21.25;48.28;96920.69;10500618;28;2150;-47
2022/10/06 07:53:55;;;;;;;;;;;;;;;21.28;48.15;96928.13;10502396;28;2111;-47
2022/10/06 07:58:57;;;;;;;;;;;;;;;21.20;48.33;96931.22;10512205;28;1976;-48
2022/10/06 08:03:57;;;;;;;;;;;;;;;21.23;48.27;96933.34;10506800;28;2116;-46
2022/10/06 08:08:58;;;;;;;;;;;;;;;21.24;48.39;96950.75;10508720;28;2348;-46
2022/10/06 08:13:58;;;;;;;;;;;;;;;21.27;48.49;96951.06;10503953;28;2088;-47
2022/10/06 08:18:59;;;;;;;;;;;;;;;21.19;48.91;96955.97;10517249;28;2004;-44
2022/10/06 08:23:59;;;;;;;;;;;;;;;21.20;48.63;96957.56;10513836;28;2037;-46
2022/10/06 08:29:01;;;;;;;;;;;;;;;21.15;49.06;96962.78;10523644;28;2110;-46
2022/10/06 08:34:02;;;;;;;;;;;;;;;21.15;48.90;96960.16;10524748;28;1994;-46
2022/10/06 08:39:02;;;;;;;;;;;;;;;21.17;48.63;96964.13;10526957;28;1981;-46
2022/10/06 08:44:17;;;;;;;;;;;;;;;21.25;48.65;96968.97;10520368;28;1884;-45
2022/10/06 08:49:18;;;;;;;;;;;;;;;21.15;49.29;96965.41;10528456;28;2189;-48
2022/10/06 08:54:48;;;;;;;;;;;;;;;21.16;49.07;96969.66;10505879;28;2015;-47
2022/10/06 08:59:48;;;;;;;;;;;;;;;21.16;49.00;96972.31;10492897;28;2007;-45
2022/10/06 09:04:50;;;;;;;;;;;;;;;21.16;49.03;96972.31;10505718;28;2050;-48
2022/10/06 09:10:09;;;;;;;;;;;;;;;21.18;49.09;96972.84;10511957;28;2046;-45
2022/10/06 09:15:15;;;;;;;;;;;;;;;21.14;49.25;96975.19;10512803;28;1969;-46
2022/10/06 09:20:22;;;;;;;;;;;;;;;21.17;49.35;96979.97;10515313;28;1950;-45
2022/10/06 09:25:26;;;;;;;;;;;;;;;21.21;49.24;96974.97;10528320;28;1992;-47
2022/10/06 09:30:27;;;;;;;;;;;;;;;21.22;49.17;96987.13;10527489;28;2049;-47
2022/10/06 09:35:28;;;;;;;;;;;;;;;21.30;49.55;96984.84;10517112;28;2313;-47
2022/10/06 09:40:35;;;;;;;;;;;;;;;21.37;49.29;96988.06;10519948;28;2048;-45
2022/10/06 09:45:36;;;;;;;;;;;;;;;21.34;49.61;96990.41;10512928;28;2088;-46
2022/10/06 09:50:37;;;;;;;;;;;;;;;21.43;49.08;96986.31;10529016;28;2011;-46
2022/10/06 09:55:37;;;;;;;;;;;;;;;21.48;49.08;96987.13;10506101;28;2155;-48
2022/10/06 10:00:47;;;;;;;;;;;;;;;21.50;49.37;96981.59;10515125;28;2111;-46
2022/10/06 10:05:48;;;;;;;;;;;;;;;21.58;49.16;96979.31;10491230;28;2112;-44
2022/10/06 10:10:49;;;;;;;;;;;;;;;21.53;49.29;96979.28;10507617;28;1969;-46
2022/10/06 10:15:53;;;;;;;;;;;;;;;21.54;48.82;96975.59;10507731;28;2018;-45
2022/10/06 10:21:03;;;;;;;;;;;;;;;21.53;48.93;96976.66;10511795;28;2121;-45
2022/10/06 10:26:25;;;;;;;;;;;;;;;21.57;49.11;96976.94;10516335;28;2186;-45
2022/10/06 10:31:25;;;;;;;;;;;;;;;21.56;49.69;96975.31;10513380;28;2001;-43
2022/10/06 10:36:48;;;;;;;;;;;;;;;21.62;49.73;96979.59;10514463;28;2063;-44
2022/10/06 10:41:49;;;;;;;;;;;;;;;21.66;50.08;96988.59;10506657;28;2045;-45
2022/10/06 10:46:53;;;;;;;;;;;;;;;21.63;49.86;96983.84;10497966;28;2010;-47
2022/10/06 10:52:06;;;;;;;;;;;;;;;21.58;49.73;96991.69;10498123;28;2033;-45
2022/10/06 10:57:11;;;;;;;;;;;;;;;21.59;49.87;96988.03;10511445;28;2013;-44
2022/10/06 11:02:17;;;;;;;;;;;;;;;21.57;49.84;96987.50;10495428;28;2027;-45
2022/10/06 11:07:41;;;;;;;;;;;;;;;21.55;49.83;96986.94;10493994;28;2773;-45
2022/10/06 11:12:42;;;;;;;;;;;;;;;21.52;50.07;96990.06;10498172;28;2136;-47
2022/10/06 11:17:46;;;;;;;;;;;;;;;21.53;50.02;96984.56;10510166;28;2106;-46
2022/10/06 11:23:05;;;;;;;;;;;;;;;21.53;50.14;96979.28;10501696;28;2073;-45
2022/10/06 11:28:13;;;;;;;;;;;;;;;21.56;49.78;96985.88;10518278;28;2023;-45
2022/10/06 11:33:16;;;;;;;;;;;;;;;21.57;49.67;96977.75;10523724;28;2110;-47
2022/10/06 11:38:25;;;;;;;;;;;;;;;21.53;49.91;96974.00;10510990;28;2040;-44
2022/10/06 11:43:40;;;;;;;;;;;;;;;21.50;49.82;96971.06;10511906;28;2067;-47
2022/10/06 11:48:41;;;;;;;;;;;;;;;21.51;49.74;96962.09;10523866;28;2367;-46
2022/10/06 11:53:42;;;;;;;;;;;;;;;21.53;50.15;96962.66;10515650;28;2163;-44
2022/10/06 11:58:51;;;;;;;;;;;;;;;21.53;49.87;96962.66;10512834;28;2043;-46
2022/10/06 12:04:02;;;;;;;;;;;;;;;21.52;49.79;96956.56;10499874;28;2160;-48
2022/10/06 12:09:10;;;;;;;;;;;;;;;21.51;49.72;96947.09;10522046;28;2581;-46
2022/10/06 12:14:15;;;;;;;;;;;;;;;21.52;49.63;96950.50;10534861;28;2034;-47
2022/10/06 12:19:18;;;;;;;;;;;;;;;21.50;49.87;96948.13;10535967;27;2016;-45
2022/10/06 12:24:24;;;;;;;;;;;;;;;21.51;50.04;96948.91;10519937;28;2025;-47
2022/10/06 12:29:27;;;;;;;;;;;;;;;21.51;49.92;96941.81;10532940;28;2057;-45
2022/10/06 12:34:47;;;;;;;;;;;;;;;21.54;50.00;96940.47;10524023;28;1991;-45
2022/10/06 12:39:47;;;;;;;;;;;;;;;21.46;50.26;96938.31;10524043;28;2084;-47
2022/10/06 12:44:48;;;;;;;;;;;;;;;21.44;50.33;96935.94;10541378;28;2382;-46
2022/10/06 12:49:57;;;;;;;;;;;;;;;21.45;50.00;96931.44;10528817;28;2037;-46
2022/10/06 12:55:17;;;;;;;;;;;;;;;21.49;50.12;96927.25;10521293;28;2131;-46
2022/10/06 13:00:33;;;;;;;;;;;;;;;21.51;50.36;96919.91;10520407;28;2158;-48
2022/10/06 13:05:33;;;;;;;;;;;;;;;21.51;50.43;96919.91;10525017;28;2074;-46
2022/10/06 13:10:34;;;;;;;;;;;;;;;21.52;50.52;96918.84;10509224;28;2035;-45
2022/10/06 13:15:34;;;;;;;;;;;;;;;21.55;50.15;96913.88;10522072;28;2047;-46
2022/10/06 13:20:36;;;;;;;;;;;;;;;21.58;50.29;96905.44;10509391;28;2104;-46
2022/10/06 13:25:40;;;;;;;;;;;;;;;21.64;50.07;96901.00;10534339;28;2050;-47
2022/10/06 13:30:41;;;;;;;;;;;;;;;21.73;49.91;96902.13;10507661;28;1968;-46
2022/10/06 13:35:41;;;;;;;;;;;;;;;21.68;49.76;96904.72;10500976;28;2112;-49
2022/10/06 13:40:41;;;;;;;;;;;;;;;21.66;49.89;96907.59;10541822;28;2169;-47
2022/10/06 13:45:43;;;;;;;;;;;;;;;21.57;50.46;96903.06;10518620;28;2017;-46
2022/10/06 13:50:44;;;;;;;;;;;;;;;21.56;50.32;96901.44;10499630;28;2072;-46
2022/10/06 13:55:47;;;;;;;;;;;;;;;21.53;50.23;96900.13;10527135;28;1937;-48
2022/10/06 14:00:49;;;;;;;;;;;;;;;21.48;50.62;96901.91;10539349;28;2080;-46
2022/10/06 14:05:49;;;;;;;;;;;;;;;21.46;50.67;96896.91;10504880;28;2036;-46
2022/10/06 14:11:16;;;;;;;;;;;;;;;21.45;50.33;96899.78;10539640;28;2010;-49
2022/10/06 14:16:18;;;;;;;;;;;;;;;21.41;50.52;96898.72;10510495;28;2481;-50
2022/10/06 14:21:38;;;;;;;;;;;;;;;21.42;50.65;96895.00;10535091;28;2050;-48
2022/10/06 14:26:39;;;;;;;;;;;;;;;21.39;50.47;96895.53;10511394;28;2059;-47
2022/10/06 14:31:40;;;;;;;;;;;;;;;21.36;50.65;96898.66;10516859;28;2050;-48
2022/10/06 14:36:40;;;;;;;;;;;;;;;21.36;50.48;96894.19;10508058;28;2065;-46
2022/10/06 14:41:41;;;;;;;;;;;;;;;21.36;50.67;96896.81;10518729;28;2028;-47
2022/10/06 14:46:45;;;;;;;;;;;;;;;21.32;50.45;96897.56;10488316;28;2055;-50
2022/10/06 14:51:46;;;;;;;;;;;;;;;21.32;50.53;96892.28;10517986;28;2089;-48
2022/10/06 14:56:46;;;;;;;;;;;;;;;21.29;50.59;96890.16;10523698;28;2374;-47
2022/10/06 15:01:46;;;;;;;;;;;;;;;21.29;50.58;96884.91;10503803;28;2173;-49
2022/10/06 15:12:05;;;;;;;;;;;;;;;21.30;50.61;96878.56;10517492;28;2038;-45
2022/10/06 15:17:06;;;;;;;;;;;;;;;21.30;50.36;96879.38;10520224;28;2113;-48
2022/10/06 15:22:07;;;;;;;;;;;;;;;21.28;50.61;96883.28;10517269;28;2076;-45
2022/10/06 15:32:27;;;;;;;;;;;;;;;21.26;50.72;96872.19;10521572;28;2187;-47
2022/10/06 15:37:27;;;;;;;;;;;;;;;21.24;50.57;96883.00;10511222;28;1983;-47
2022/10/06 15:42:27;;;;;;;;;;;;;;;21.25;50.55;96878.50;10508558;28;2022;-48
2022/10/06 15:47:28;;;;;;;;;;;;;;;21.22;50.36;96869.28;10528386;28;2143;-47
2022/10/06 15:52:32;;;;;;;;;;;;;;;21.22;50.51;96869.28;10519545;28;2099;-47
2022/10/06 15:57:33;;;;;;;;;;;;;;;21.21;50.51;96875.56;10522157;28;2190;-50
2022/10/06 16:02:34;;;;;;;;;;;;;;;21.21;50.42;96870.31;10526256;28;2025;-43
2022/10/06 16:07:34;;;;;;;;;;;;;;;21.19;50.44;96876.88;10511936;28;1891;-43
2022/10/06 16:12:35;;;;;;;;;;;;;;;21.18;50.48;96864.75;10513513;28;1921;-45
2022/10/06 16:17:35;;;;;;;;;;;;;;;21.16;50.62;96875.53;10518271;28;2108;-47
2022/10/06 16:22:40;;;;;;;;;;;;;;;21.15;50.57;96878.41;10513604;28;2152;-44
2022/10/06 16:27:41;;;;;;;;;;;;;;;21.19;50.42;96884.78;10519194;28;1999;-45
2022/10/06 16:32:41;;;;;;;;;;;;;;;21.14;50.36;96888.19;10518324;28;2169;-45
2022/10/06 16:37:47;;;;;;;;;;;;;;;21.15;50.32;96891.59;10507258;28;2111;-44
2022/10/06 16:42:48;;;;;;;;;;;;;;;21.13;50.49;96885.78;10511977;28;2040;-44
2022/10/06 16:47:48;;;;;;;;;;;;;;;21.15;50.46;96892.41;10513231;28;2061;-50
2022/10/06 16:52:48;;;;;;;;;;;;;;;21.12;50.10;96892.09;10509013;28;2288;-47
2022/10/06 16:57:49;;;;;;;;;;;;;;;21.12;50.13;96894.75;10528703;28;2059;-49
2022/10/06 17:02:53;;;;;;;;;;;;;;;21.13;50.22;96898.97;10520591;28;2061;-47
2022/10/06 17:07:53;;;;;;;;;;;;;;;21.12;50.02;96900.03;10526991;28;2076;-47
2022/10/06 17:12:53;;;;;;;;;;;;;;;21.08;50.02;96895.22;10523014;28;2102;-46
2022/10/06 17:17:54;;;;;;;;;;;;;;;21.10;49.94;96902.91;10521775;28;2178;-46
2022/10/06 17:22:54;;;;;;;;;;;;;;;21.08;50.26;96912.09;10524750;28;2039;-43
2022/10/06 17:27:55;;;;;;;;;;;;;;;21.05;50.18;96914.19;10524886;28;2128;-47
2022/10/06 17:32:55;;;;;;;;;;;;;;;21.04;50.15;96909.97;10522587;28;2103;-47
2022/10/06 17:37:56;;;;;;;;;;;;;;;21.05;49.87;96919.47;10512834;28;2023;-49
2022/10/06 17:42:56;;;;;;;;;;;;;;;21.03;50.01;96912.84;10530139;28;2066;-48
2022/10/06 17:47:56;;;;;;;;;;;;;;;21.04;50.20;96919.72;10520559;28;2002;-46
2022/10/06 17:52:58;;;;;;;;;;;;;;;21.02;50.15;96917.31;10518592;28;2088;-47
2022/10/06 17:57:58;;;;;;;;;;;;;;;21.00;50.12;96916.75;10521606;28;1903;-49
2022/10/06 18:02:59;;;;;;;;;;;;;;;20.99;50.20;96917.81;10503834;28;2073;-50
2022/10/06 18:08:00;;;;;;;;;;;;;;;21.00;50.11;96918.56;10520700;28;2015;-47
2022/10/06 18:13:00;;;;;;;;;;;;;;;21.01;49.85;96915.72;10538650;27;2102;-46
2022/10/06 18:18:01;;;;;;;;;;;;;;;21.00;50.10;96914.09;10523833;28;2065;-48
2022/10/06 18:23:01;;;;;;;;;;;;;;;20.98;50.25;96913.56;10518764;28;1999;-49
2022/10/06 18:28:01;;;;;;;;;;;;;;;20.98;49.88;96921.47;10522921;28;2039;-46
2022/10/06 18:33:01;;;;;;;;;;;;;;;20.96;49.91;96912.19;10518170;28;2044;-44
2022/10/06 18:38:02;;;;;;;;;;;;;;;20.94;50.20;96909.03;10517018;28;2082;-47
2022/10/06 18:43:02;;;;;;;;;;;;;;;20.94;50.10;96919.56;10508231;28;2026;-48
2022/10/06 18:53:21;;;;;;;;;;;;;;;20.91;49.91;96910.34;10519681;28;2179;-47
2022/10/06 18:58:22;;;;;;;;;;;;;;;20.93;49.87;96921.44;10522593;28;2046;-48
2022/10/06 19:03:22;;;;;;;;;;;;;;;20.92;49.94;96922.47;10512379;28;2185;-51
2022/10/06 19:08:22;;;;;;;;;;;;;;;20.91;50.01;96912.16;10520831;28;2113;-46
2022/10/06 19:13:26;;;;;;;;;;;;;;;20.92;50.00;96926.91;10514744;28;2122;-48
2022/10/06 19:18:36;;;;;;;;;;;;;;;20.89;50.02;96928.25;10525269;28;1833;-47
2022/10/06 19:23:37;;;;;;;;;;;;;;;20.89;50.09;96917.69;10514870;28;1980;-46
2022/10/06 19:28:38;;;;;;;;;;;;;;;20.89;49.85;96916.88;10525334;28;2123;-49
2022/10/06 19:33:38;;;;;;;;;;;;;;;20.88;50.09;96913.44;10521781;28;2111;-46
2022/10/06 19:38:39;;;;;;;;;;;;;;;20.90;50.02;96906.09;10517175;28;2050;-49
2022/10/06 19:43:39;;;;;;;;;;;;;;;20.88;49.86;96915.28;10509723;28;2085;-48
2022/10/06 19:48:39;;;;;;;;;;;;;;;20.87;49.96;96919.78;10524556;28;2096;-48
2022/10/06 19:53:40;;;;;;;;;;;;;;;20.87;49.80;96918.97;10518307;28;1910;-47
2022/10/06 19:58:41;;;;;;;;;;;;;;;20.87;49.67;96913.72;10522178;28;2118;-47
2022/10/06 20:03:41;;;;;;;;;;;;;;;20.88;49.94;96910.00;10502752;28;2107;-46
2022/10/06 20:08:42;;;;;;;;;;;;;;;20.85;49.72;96916.59;10525594;28;2049;-50
2022/10/06 20:13:42;;;;;;;;;;;;;;;20.84;49.88;96911.56;10503976;28;1962;-46
2022/10/06 20:18:43;;;;;;;;;;;;;;;20.86;49.79;96914.72;10510936;28;1879;-46
2022/10/06 20:23:47;;;;;;;;;;;;;;;20.82;49.90;96914.44;10524343;28;1879;-48
2022/10/06 20:28:48;;;;;;;;;;;;;;;20.84;49.63;96920.25;10528779;28;1999;-46
2022/10/06 20:33:49;;;;;;;;;;;;;;;20.84;49.74;96920.25;10528320;28;2024;-49
2022/10/06 20:44:08;;;;;;;;;;;;;;;20.83;49.97;96918.69;10535354;28;2059;-46
2022/10/06 20:49:09;;;;;;;;;;;;;;;20.84;49.46;96917.63;10541495;28;2247;-47
2022/10/06 20:54:10;;;;;;;;;;;;;;;20.84;49.60;96915.00;10525131;28;2201;-47
2022/10/06 20:59:10;;;;;;;;;;;;;;;20.82;49.93;96911.00;10518907;28;1999;-47
2022/10/06 21:04:11;;;;;;;;;;;;;;;20.83;49.85;96905.50;10508590;28;2052;-46
2022/10/06 21:09:12;;;;;;;;;;;;;;;20.81;49.77;96894.38;10512661;28;2393;-47
2022/10/06 21:14:13;;;;;;;;;;;;;;;20.81;49.61;96890.97;10518986;28;1910;-49
2022/10/06 21:19:14;;;;;;;;;;;;;;;20.83;49.74;96894.16;10508756;28;1951;-47
2022/10/06 21:24:14;;;;;;;;;;;;;;;20.81;49.40;96883.06;10521588;28;2094;-46
2022/10/06 21:29:14;;;;;;;;;;;;;;;20.80;49.46;96877.00;10524434;28;2082;-47
2022/10/06 21:34:15;;;;;;;;;;;;;;;20.80;49.70;96876.19;10516668;28;1965;-45
2022/10/06 21:39:15;;;;;;;;;;;;;;;20.78;49.77;96883.56;10521926;28;1915;-48
2022/10/06 21:44:16;;;;;;;;;;;;;;;20.81;49.48;96862.75;10498420;28;1886;-49
2022/10/06 21:49:20;;;;;;;;;;;;;;;20.80;49.48;96863.03;10526597;28;2109;-46
2022/10/06 21:54:21;;;;;;;;;;;;;;;20.76;49.75;96870.63;10521463;28;1938;-46
2022/10/06 21:59:21;;;;;;;;;;;;;;;20.78;49.73;96863.28;10524652;28;2030;-47
2022/10/06 22:04:21;;;;;;;;;;;;;;;20.79;49.65;96864.84;10535495;27;2054;-45
2022/10/06 22:09:22;;;;;;;;;;;;;;;20.78;49.66;96851.94;10523435;28;2098;-47
2022/10/06 22:14:22;;;;;;;;;;;;;;;20.75;49.60;96847.94;10521520;28;1910;-46
2022/10/06 22:19:23;;;;;;;;;;;;;;;20.74;49.90;96849.00;10516028;28;2117;-46
2022/10/06 22:24:23;;;;;;;;;;;;;;;20.75;49.86;96847.94;10505980;28;2100;-48
2022/10/06 22:29:23;;;;;;;;;;;;;;;20.76;49.59;96839.00;10524699;28;2412;-46
2022/10/06 22:34:25;;;;;;;;;;;;;;;20.73;49.85;96836.09;10518539;28;2108;-50
2022/10/06 22:39:26;;;;;;;;;;;;;;;20.73;49.58;96831.59;10523011;28;2051;-47
2022/10/06 22:44:27;;;;;;;;;;;;;;;20.72;49.81;96822.13;10525852;28;2099;-47
2022/10/06 22:49:27;;;;;;;;;;;;;;;20.73;49.68;96817.66;10516450;28;2099;-47
2022/10/06 22:54:28;;;;;;;;;;;;;;;20.74;49.32;96813.94;10522173;28;2021;-47
2022/10/06 22:59:29;;;;;;;;;;;;;;;20.73;49.73;96815.00;10520857;28;2024;-47
2022/10/06 23:04:29;;;;;;;;;;;;;;;20.72;49.63;96803.66;10523285;28;1938;-45
2022/10/06 23:09:30;;;;;;;;;;;;;;;20.72;49.78;96798.41;10519299;28;2133;-47
2022/10/06 23:14:30;;;;;;;;;;;;;;;20.71;49.73;96791.53;10513400;28;2059;-46
2022/10/06 23:19:36;;;;;;;;;;;;;;;20.71;49.77;96780.97;10518447;28;2106;-49
2022/10/06 23:24:37;;;;;;;;;;;;;;;20.71;49.65;96783.63;10522745;28;2131;-49
2022/10/06 23:29:37;;;;;;;;;;;;;;;20.72;49.55;96774.69;10517118;28;2369;-46
2022/10/06 23:34:37;;;;;;;;;;;;;;;20.71;49.48;96778.34;10518060;28;2156;-49
2022/10/06 23:39:38;;;;;;;;;;;;;;;20.71;49.71;96780.97;10518460;28;2076;-46
2022/10/06 23:44:39;;;;;;;;;;;;;;;20.71;49.35;96775.72;10512172;28;2058;-48
2022/10/06 23:49:42;;;;;;;;;;;;;;;20.69;49.49;96769.13;10517251;28;2411;-46
2022/10/06 23:54:42;;;;;;;;;;;;;;;20.67;49.48;96764.09;10522946;28;1998;-48
2022/10/06 23:59:42;;;;;;;;;;;;;;;20.69;49.55;96769.91;10531274;28;1914;-46
